createdAt,value
2018-08-13T00:00:41.990Z,57.20
2018-08-13T00:03:10.264Z,57.30
2018-08-13T00:05:38.347Z,57.40
2018-08-13T00:08:06.755Z,57.70
2018-08-13T00:10:34.827Z,57.90
2018-08-13T00:13:02.945Z,58.50
2018-08-13T00:15:31.053Z,58.30
2018-08-13T00:17:59.095Z,58.20
2018-08-13T00:20:27.324Z,59.00
2018-08-13T00:22:55.428Z,58.60
2018-08-13T00:25:23.466Z,58.60
2018-08-13T00:27:51.548Z,58.80
2018-08-13T00:30:19.684Z,58.90
2018-08-13T00:32:47.740Z,59.50
2018-08-13T00:35:15.825Z,59.30
2018-08-13T00:37:43.888Z,59.40
2018-08-13T00:40:13.090Z,58.80
2018-08-13T00:42:41.347Z,59.10
2018-08-13T00:45:10.942Z,59.00
2018-08-13T00:47:39.011Z,58.70
2018-08-13T00:50:09.483Z,58.90
2018-08-13T00:52:37.984Z,59.00
2018-08-13T00:55:06.832Z,59.30
2018-08-13T00:57:35.119Z,59.50
2018-08-13T01:00:03.143Z,59.50
2018-08-13T01:02:31.215Z,59.40
2018-08-13T01:04:59.269Z,60.40
2018-08-13T01:07:27.378Z,59.90
2018-08-13T01:09:55.473Z,59.70
2018-08-13T01:12:23.569Z,59.60
2018-08-13T01:14:51.629Z,59.30
2018-08-13T01:17:19.723Z,59.20
2018-08-13T01:19:47.784Z,59.40
2018-08-13T01:22:15.853Z,59.60
2018-08-13T01:24:43.929Z,59.60
2018-08-13T01:27:16.238Z,60.20
2018-08-13T01:29:44.309Z,59.70
2018-08-13T01:32:12.343Z,59.60
2018-08-13T01:34:40.460Z,59.70
2018-08-13T01:37:08.531Z,59.30
2018-08-13T01:39:36.587Z,59.10
2018-08-13T01:42:04.712Z,58.60
2018-08-13T01:44:32.780Z,58.40
2018-08-13T01:47:00.876Z,58.80
2018-08-13T01:49:28.981Z,58.70
2018-08-13T01:51:57.027Z,58.60
2018-08-13T01:54:25.087Z,59.60
2018-08-13T01:56:53.111Z,59.70
2018-08-13T01:59:21.184Z,60.30
2018-08-13T02:01:49.318Z,59.90
2018-08-13T02:04:17.322Z,59.70
2018-08-13T02:06:45.420Z,59.80
2018-08-13T02:09:13.523Z,59.40
2018-08-13T02:11:41.620Z,59.30
2018-08-13T02:14:09.662Z,59.20
2018-08-13T02:16:37.755Z,59.40
2018-08-13T02:19:05.823Z,59.70
2018-08-13T02:21:33.908Z,59.90
2018-08-13T02:24:01.957Z,59.80
2018-08-13T02:26:30.122Z,59.50
2018-08-13T02:28:58.180Z,58.90
2018-08-13T02:31:26.236Z,58.60
2018-08-13T02:33:54.341Z,58.50
2018-08-13T02:36:22.387Z,58.80
2018-08-13T02:38:50.481Z,59.30
2018-08-13T02:44:09.589Z,59.20
2018-08-13T02:46:37.611Z,58.70
2018-08-13T02:49:05.725Z,58.50
2018-08-13T02:51:34.866Z,59.20
2018-08-13T02:54:03.728Z,58.90
2018-08-13T02:56:31.855Z,59.00
2018-08-13T02:59:00.253Z,59.00
2018-08-13T03:01:28.804Z,59.20
2018-08-13T03:03:56.835Z,59.30
2018-08-13T03:06:24.930Z,59.30
2018-08-13T03:08:53.047Z,59.40
2018-08-13T03:11:21.520Z,59.30
2018-08-13T03:13:49.809Z,59.60
2018-08-13T03:16:18.028Z,59.30
2018-08-13T03:18:46.152Z,60.30
2018-08-13T03:21:14.461Z,59.70
2018-08-13T03:23:42.540Z,60.00
2018-08-13T03:26:10.641Z,59.70
2018-08-13T03:28:38.843Z,60.40
2018-08-13T03:31:06.931Z,60.40
2018-08-13T03:33:35.049Z,60.60
2018-08-13T03:36:03.067Z,60.10
2018-08-13T03:38:31.088Z,60.10
2018-08-13T03:40:59.225Z,59.80
2018-08-13T03:43:27.325Z,59.80
2018-08-13T03:45:55.400Z,59.40
2018-08-13T03:48:23.793Z,59.60
2018-08-13T03:50:51.977Z,59.50
2018-08-13T03:53:20.104Z,59.30
2018-08-13T03:55:48.271Z,59.60
2018-08-13T03:58:16.579Z,59.00
2018-08-13T04:00:44.740Z,58.90
2018-08-13T04:03:12.997Z,59.40
2018-08-13T04:05:41.152Z,59.30
2018-08-13T04:08:09.288Z,59.10
2018-08-13T04:10:37.440Z,58.70
2018-08-13T04:13:05.570Z,58.80
2018-08-13T04:15:33.687Z,58.70
2018-08-13T04:18:02.177Z,58.60
2018-08-13T04:20:31.341Z,58.10
2018-08-13T04:22:59.475Z,58.20
2018-08-13T04:25:27.794Z,58.10
2018-08-13T04:27:55.989Z,57.50
2018-08-13T04:30:24.132Z,57.90
2018-08-13T04:32:52.467Z,57.50
2018-08-13T04:35:20.484Z,57.50
2018-08-13T04:37:48.669Z,57.30
2018-08-13T04:40:17.965Z,57.20
2018-08-13T04:42:47.185Z,57.00
2018-08-13T04:45:15.675Z,56.70
2018-08-13T04:47:49.043Z,56.90
2018-08-13T04:50:18.039Z,56.40
2018-08-13T04:52:46.608Z,55.90
2018-08-13T04:55:14.754Z,55.60
2018-08-13T04:57:42.878Z,55.80
2018-08-13T05:00:10.960Z,56.30
2018-08-13T05:02:39.457Z,55.50
2018-08-13T05:05:08.644Z,55.30
2018-08-13T05:07:36.727Z,55.20
2018-08-13T05:10:06.226Z,55.00
2018-08-13T05:12:34.352Z,54.70
2018-08-13T05:15:02.804Z,54.90
2018-08-13T05:17:30.958Z,54.50
2018-08-13T05:19:59.065Z,54.40
2018-08-13T05:22:27.106Z,53.90
2018-08-13T05:24:55.217Z,53.80
2018-08-13T05:27:23.247Z,53.10
2018-08-13T05:29:51.417Z,53.10
2018-08-13T05:32:19.528Z,53.10
2018-08-13T05:34:47.596Z,52.60
2018-08-13T05:37:15.661Z,52.30
2018-08-13T05:39:43.756Z,52.20
2018-08-13T05:42:11.853Z,51.80
2018-08-13T05:44:39.883Z,51.20
2018-08-13T05:47:08.340Z,50.90
2018-08-13T05:49:36.493Z,50.80
2018-08-13T05:52:04.598Z,50.30
2018-08-13T05:54:32.726Z,50.30
2018-08-13T05:57:00.844Z,50.10
2018-08-13T05:59:28.932Z,50.00
2018-08-13T06:01:57.021Z,49.60
2018-08-13T06:04:25.045Z,49.20
2018-08-13T06:06:54.348Z,49.00
2018-08-13T06:09:22.446Z,48.90
2018-08-13T06:11:50.478Z,48.50
2018-08-13T06:14:18.515Z,48.50
2018-08-13T06:16:46.665Z,47.50
2018-08-13T06:19:14.734Z,47.60
2018-08-13T06:21:42.861Z,47.30
2018-08-13T06:24:10.946Z,47.20
2018-08-13T06:26:39.030Z,46.80
2018-08-13T06:29:07.090Z,46.80
2018-08-13T06:31:35.175Z,46.40
2018-08-13T06:34:03.283Z,46.00
2018-08-13T06:36:31.376Z,46.00
2018-08-13T06:38:59.481Z,45.60
2018-08-13T06:41:27.568Z,45.30
2018-08-13T06:43:55.596Z,45.00
2018-08-13T06:46:23.636Z,44.70
2018-08-13T06:48:51.729Z,44.40
2018-08-13T06:51:19.762Z,44.20
2018-08-13T06:53:47.889Z,43.90
2018-08-13T06:56:16.000Z,44.30
2018-08-13T06:58:44.052Z,43.80
2018-08-13T07:01:12.157Z,43.00
2018-08-13T07:03:40.236Z,42.40
2018-08-13T07:06:08.330Z,43.00
2018-08-13T07:08:36.425Z,42.10
2018-08-13T07:11:04.498Z,41.70
2018-08-13T07:13:32.534Z,41.90
2018-08-13T07:16:00.583Z,41.40
2018-08-13T07:18:28.627Z,41.40
2018-08-13T07:20:56.732Z,41.00
2018-08-13T07:23:24.811Z,41.20
2018-08-13T07:25:52.884Z,40.70
2018-08-13T07:28:20.977Z,41.10
2018-08-13T07:30:49.023Z,40.00
2018-08-13T07:33:17.149Z,40.50
2018-08-13T07:35:45.231Z,38.90
2018-08-13T07:38:13.362Z,39.20
2018-08-13T07:40:41.431Z,38.70
2018-08-13T07:43:09.512Z,38.80
2018-08-13T07:45:37.675Z,39.10
2018-08-13T07:48:05.981Z,38.90
2018-08-13T07:50:34.096Z,38.30
2018-08-13T07:53:02.180Z,38.50
2018-08-13T07:55:30.256Z,37.70
2018-08-13T07:57:58.309Z,37.40
2018-08-13T08:00:26.367Z,37.30
2018-08-13T08:02:54.431Z,37.20
2018-08-13T08:05:22.475Z,36.70
2018-08-13T08:07:50.542Z,36.50
2018-08-13T08:10:18.612Z,36.70
2018-08-13T08:12:46.688Z,36.60
2018-08-13T08:15:17.281Z,36.00
2018-08-13T08:17:45.399Z,35.60
2018-08-13T08:20:13.447Z,36.10
2018-08-13T08:22:41.560Z,35.30
2018-08-13T08:25:16.005Z,35.70
2018-08-13T08:27:44.708Z,37.30
2018-08-13T08:30:13.222Z,36.40
2018-08-13T08:32:41.304Z,35.80
2018-08-13T08:35:11.313Z,34.90
2018-08-13T08:37:39.883Z,35.00
2018-08-13T08:40:09.868Z,34.50
2018-08-13T08:42:37.954Z,35.40
2018-08-13T08:45:08.714Z,33.30
2018-08-13T08:47:36.831Z,33.20
2018-08-13T08:50:05.492Z,34.00
2018-08-13T08:52:33.554Z,33.30
2018-08-13T08:55:01.621Z,33.80
2018-08-13T08:57:29.749Z,34.00
2018-08-13T08:59:57.789Z,33.50
2018-08-13T09:02:26.002Z,33.30
2018-08-13T09:06:23.291Z,31.60
2018-08-13T09:08:51.384Z,30.00
2018-08-13T09:11:19.449Z,26.80
2018-08-13T09:13:47.685Z,25.70
2018-08-13T09:16:15.848Z,25.00
2018-08-13T09:18:56.103Z,25.70
2018-08-13T09:21:28.864Z,26.30
2018-08-13T09:24:09.406Z,23.70
2018-08-13T09:26:49.024Z,23.70
2018-08-13T09:29:28.985Z,22.90
2018-08-13T09:32:20.176Z,23.40
2018-08-13T09:35:27.067Z,22.70
2018-08-13T09:37:55.942Z,21.80
2018-08-13T09:40:24.845Z,21.40
2018-08-13T09:42:53.142Z,21.80
2018-08-13T09:45:21.264Z,21.80
2018-08-13T09:47:49.368Z,21.90
2018-08-13T09:50:18.435Z,21.70
2018-08-13T09:52:47.293Z,22.10
2018-08-13T09:55:16.025Z,20.70
2018-08-13T09:57:45.116Z,21.30
2018-08-13T10:00:19.999Z,21.90
2018-08-13T10:02:48.864Z,21.80
2018-08-13T10:05:17.202Z,20.90
2018-08-13T10:07:45.727Z,19.80
2018-08-13T10:10:14.411Z,20.20
2018-08-13T10:12:43.478Z,22.80
2018-08-13T10:15:12.430Z,22.60
2018-08-13T10:17:40.527Z,21.70
2018-08-13T10:20:13.519Z,21.70
2018-08-13T10:22:41.677Z,21.30
2018-08-13T10:25:10.760Z,22.20
2018-08-13T10:27:39.118Z,21.60
2018-08-13T10:30:08.751Z,21.10
2018-08-13T10:32:37.213Z,20.60
2018-08-13T10:35:05.584Z,21.60
2018-08-13T10:37:33.745Z,21.40
2018-08-13T10:40:01.835Z,20.50
2018-08-13T10:42:29.934Z,19.20
2018-08-13T10:44:58.157Z,20.50
2018-08-13T10:47:26.136Z,19.60
2018-08-13T10:49:54.156Z,20.40
2018-08-13T10:52:22.263Z,19.40
2018-08-13T10:54:50.324Z,19.50
2018-08-13T10:57:18.416Z,19.40
2018-08-13T10:59:46.566Z,19.40
2018-08-13T11:02:14.660Z,20.90
2018-08-13T11:04:42.766Z,19.30
2018-08-13T11:07:10.864Z,19.00
2018-08-13T11:09:38.922Z,19.10
2018-08-13T11:12:06.996Z,18.80
2018-08-13T11:14:35.063Z,19.70
2018-08-13T11:17:03.179Z,20.40
2018-08-13T11:19:31.356Z,20.50
2018-08-13T11:21:59.622Z,20.20
2018-08-13T11:24:27.907Z,20.50
2018-08-13T11:26:55.980Z,20.20
2018-08-13T11:29:24.030Z,20.90
2018-08-13T11:31:52.127Z,20.80
2018-08-13T11:34:20.214Z,19.80
2018-08-13T11:36:48.307Z,19.10
2018-08-13T11:39:16.341Z,20.00
2018-08-13T11:41:44.465Z,22.20
2018-08-13T11:44:12.528Z,22.70
2018-08-13T11:46:40.637Z,22.40
2018-08-13T11:49:08.652Z,22.70
2018-08-13T11:51:36.687Z,23.10
2018-08-13T11:54:05.054Z,23.90
2018-08-13T11:56:33.124Z,23.40
2018-08-13T11:59:01.839Z,22.70
2018-08-13T12:01:29.883Z,22.90
2018-08-13T12:03:58.004Z,23.80
2018-08-13T12:06:26.060Z,24.50
2018-08-13T12:08:54.149Z,23.70
2018-08-13T12:11:22.297Z,23.80
2018-08-13T12:13:50.376Z,23.50
2018-08-13T12:16:18.447Z,23.10
2018-08-13T12:18:46.508Z,23.90
2018-08-13T12:21:14.616Z,23.60
2018-08-13T12:23:42.684Z,23.40
2018-08-13T12:26:10.788Z,24.10
2018-08-13T12:28:38.853Z,23.80
2018-08-13T12:31:06.984Z,24.50
2018-08-13T12:33:35.049Z,24.60
2018-08-13T12:36:03.109Z,23.60
2018-08-13T12:38:31.228Z,22.80
2018-08-13T12:40:59.350Z,22.90
2018-08-13T12:43:27.434Z,23.30
2018-08-13T12:45:55.549Z,22.20
2018-08-13T12:48:23.615Z,20.90
2018-08-13T12:50:51.676Z,21.40
2018-08-13T12:53:19.736Z,21.80
2018-08-13T12:55:47.820Z,22.50
2018-08-13T12:58:15.950Z,22.70
2018-08-13T13:00:44.021Z,23.20
2018-08-13T13:03:12.137Z,23.30
2018-08-13T13:05:40.224Z,23.20
2018-08-13T13:08:08.626Z,22.90
2018-08-13T13:10:36.725Z,22.00
2018-08-13T13:13:04.786Z,20.90
2018-08-13T13:15:32.900Z,21.60
2018-08-13T13:18:00.990Z,21.60
2018-08-13T13:20:29.066Z,20.10
2018-08-13T13:22:57.140Z,19.60
2018-08-13T13:25:25.234Z,20.20
2018-08-13T13:27:53.261Z,20.70
2018-08-13T13:30:21.340Z,21.90
2018-08-13T13:32:49.392Z,22.30
2018-08-13T13:35:18.069Z,22.60
2018-08-13T13:37:46.144Z,22.50
2018-08-13T13:40:15.249Z,23.30
2018-08-13T13:42:43.255Z,23.50
2018-08-13T13:45:12.396Z,23.60
2018-08-13T13:47:40.414Z,23.90
2018-08-13T13:50:11.553Z,24.70
2018-08-13T13:52:39.648Z,23.90
2018-08-13T13:55:07.820Z,24.20
2018-08-13T13:57:35.863Z,24.50
2018-08-13T14:00:07.552Z,24.60
2018-08-13T14:02:35.683Z,24.50
2018-08-13T14:05:04.559Z,24.90
2018-08-13T14:07:32.664Z,25.20
2018-08-13T14:10:00.848Z,25.30
2018-08-13T14:12:29.310Z,25.70
2018-08-13T14:14:57.376Z,26.20
2018-08-13T14:17:25.479Z,26.30
2018-08-13T14:19:53.504Z,26.40
2018-08-13T14:22:21.697Z,26.50
2018-08-13T14:24:49.796Z,26.80
2018-08-13T14:27:17.949Z,27.10
2018-08-13T14:29:46.052Z,27.10
2018-08-13T14:32:14.126Z,27.30
2018-08-13T14:34:42.285Z,27.50
2018-08-13T14:37:10.355Z,27.20
2018-08-13T14:39:38.445Z,27.20
2018-08-13T14:42:06.555Z,27.50
2018-08-13T14:44:34.823Z,27.80
2018-08-13T14:47:03.153Z,28.00
2018-08-13T14:49:31.283Z,28.40
2018-08-13T14:51:59.645Z,28.10
2018-08-13T14:54:27.742Z,28.20
2018-08-13T14:56:55.919Z,28.50
2018-08-13T14:59:24.024Z,28.60
2018-08-13T15:01:53.200Z,28.80
2018-08-13T15:04:21.598Z,29.40
2018-08-13T15:06:49.661Z,30.00
2018-08-13T15:09:17.733Z,30.00
2018-08-13T15:11:46.787Z,30.40
2018-08-13T15:14:14.898Z,30.60
2018-08-13T15:16:42.960Z,31.20
2018-08-13T15:19:11.618Z,31.90
2018-08-13T15:21:39.943Z,32.30
2018-08-13T15:24:08.069Z,33.40
2018-08-13T15:26:36.195Z,34.50
2018-08-13T15:29:04.477Z,35.70
2018-08-13T15:31:32.607Z,35.50
2018-08-13T15:34:00.883Z,36.20
2018-08-13T15:36:28.940Z,36.50
2018-08-13T15:38:57.125Z,36.90
2018-08-13T15:41:25.260Z,37.90
2018-08-13T15:43:53.413Z,37.50
2018-08-13T15:46:21.585Z,38.50
2018-08-13T15:48:49.660Z,38.30
2018-08-13T15:51:17.733Z,38.90
2018-08-13T15:53:45.874Z,39.30
2018-08-13T15:56:14.023Z,39.50
2018-08-13T15:58:42.108Z,39.80
2018-08-13T16:01:10.622Z,39.90
2018-08-13T16:03:38.894Z,40.80
2018-08-13T16:06:07.054Z,40.40
2018-08-13T16:08:35.099Z,40.60
2018-08-13T16:11:03.209Z,40.90
2018-08-13T16:13:32.289Z,40.90
2018-08-13T16:16:00.514Z,41.00
2018-08-13T16:18:28.685Z,41.30
2018-08-13T16:20:56.838Z,41.50
2018-08-13T16:23:25.001Z,42.00
2018-08-13T16:25:53.117Z,42.40
2018-08-13T16:28:21.232Z,42.30
2018-08-13T16:30:49.341Z,42.40
2018-08-13T16:33:17.477Z,42.50
2018-08-13T16:35:45.631Z,42.40
2018-08-13T16:38:13.752Z,42.50
2018-08-13T16:40:41.823Z,42.50
2018-08-13T16:43:09.921Z,42.60
2018-08-13T16:45:38.098Z,42.80
2018-08-13T16:48:06.163Z,43.10
2018-08-13T16:50:34.479Z,42.90
2018-08-13T16:53:02.931Z,43.20
2018-08-13T16:55:32.177Z,43.10
2018-08-13T16:58:00.867Z,43.10
2018-08-13T17:00:30.448Z,43.70
2018-08-13T17:02:58.985Z,43.30
2018-08-13T17:05:27.857Z,43.60
2018-08-13T17:07:55.907Z,43.70
2018-08-13T17:10:25.399Z,44.10
2018-08-13T17:12:54.029Z,44.50
2018-08-13T17:15:22.660Z,45.20
2018-08-13T17:17:53.453Z,45.40
2018-08-13T17:20:28.592Z,45.30
2018-08-13T17:22:57.002Z,45.10
2018-08-13T17:25:25.180Z,45.10
2018-08-13T17:27:53.299Z,45.20
2018-08-13T17:30:23.220Z,45.30
2018-08-13T17:32:52.589Z,45.60
2018-08-13T17:35:26.611Z,45.70
2018-08-13T17:37:54.909Z,45.90
2018-08-13T17:40:24.304Z,46.10
2018-08-13T17:42:58.276Z,46.00
2018-08-13T17:45:26.467Z,46.10
2018-08-13T17:47:54.694Z,46.30
2018-08-13T17:50:23.151Z,46.50
2018-08-13T17:52:51.340Z,47.60
2018-08-13T17:55:19.464Z,48.30
2018-08-13T17:57:47.703Z,48.80
2018-08-13T18:00:19.074Z,49.20
2018-08-13T18:02:47.196Z,49.30
2018-08-13T18:05:17.637Z,49.30
2018-08-13T18:07:46.116Z,49.20
2018-08-13T18:10:18.648Z,49.30
2018-08-13T18:12:46.807Z,49.50
2018-08-13T18:15:16.107Z,49.60
2018-08-13T18:17:44.604Z,49.70
2018-08-13T18:20:12.920Z,49.90
2018-08-13T18:22:41.163Z,50.20
2018-08-13T18:25:10.831Z,50.70
2018-08-13T18:27:39.807Z,51.30
2018-08-13T18:30:14.773Z,51.20
2018-08-13T18:32:42.840Z,51.50
2018-08-13T18:35:11.424Z,51.60
2018-08-13T18:37:39.536Z,51.70
2018-08-13T18:40:10.055Z,51.70
2018-08-13T18:42:38.524Z,52.10
2018-08-13T18:45:07.808Z,51.80
2018-08-13T18:47:36.011Z,51.60
2018-08-13T18:50:05.697Z,51.70
2018-08-13T18:52:33.854Z,51.70
2018-08-13T18:55:02.239Z,51.90
2018-08-13T18:57:30.352Z,52.00
2018-08-13T18:59:58.485Z,51.70
2018-08-13T19:02:26.614Z,51.80
2018-08-13T19:04:54.752Z,51.70
2018-08-13T19:07:22.864Z,51.60
2018-08-13T19:09:50.968Z,51.80
2018-08-13T19:12:19.076Z,52.00
2018-08-13T19:14:48.533Z,51.80
2018-08-13T19:17:17.853Z,51.80
2018-08-13T19:19:46.188Z,52.00
2018-08-13T19:22:15.040Z,51.80
2018-08-13T19:24:43.372Z,52.10
2018-08-13T19:27:11.451Z,52.60
2018-08-13T19:29:40.613Z,53.20
2018-08-13T19:32:08.825Z,53.10
2018-08-13T19:34:36.916Z,52.90
2018-08-13T19:37:05.186Z,53.70
2018-08-13T19:39:33.530Z,53.60
2018-08-13T19:42:01.738Z,54.00
2018-08-13T19:44:32.474Z,54.20
2018-08-13T19:47:00.710Z,54.30
2018-08-13T19:49:29.025Z,54.60
2018-08-13T19:51:57.098Z,54.90
2018-08-13T19:54:25.257Z,54.90
2018-08-13T19:56:53.377Z,55.10
2018-08-13T19:59:21.471Z,55.50
2018-08-13T20:01:49.564Z,56.10
2018-08-13T20:04:17.661Z,56.70
2018-08-13T20:06:45.736Z,57.30
2018-08-13T20:09:13.932Z,58.30
2018-08-13T20:11:42.022Z,59.10
2018-08-13T20:14:10.307Z,60.60
2018-08-13T20:16:38.588Z,62.90
2018-08-13T20:19:06.840Z,64.40
2018-08-13T20:21:36.701Z,65.60
2018-08-13T20:24:04.837Z,66.60
2018-08-13T20:26:32.966Z,67.90
2018-08-13T20:29:01.036Z,67.50
2018-08-13T20:31:29.222Z,68.20
2018-08-13T20:33:57.415Z,68.60
2018-08-13T20:36:25.497Z,69.20
2018-08-13T20:38:53.740Z,69.30
2018-08-13T20:41:22.017Z,68.90
2018-08-13T20:43:50.225Z,69.00
2018-08-13T20:46:18.350Z,69.60
2018-08-13T20:48:46.429Z,69.90
2018-08-13T20:51:14.581Z,69.60
2018-08-13T20:53:43.055Z,69.20
2018-08-13T20:56:11.132Z,69.50
2018-08-13T20:58:39.445Z,70.50
2018-08-13T21:01:07.532Z,70.10
2018-08-13T21:03:35.688Z,70.20
2018-08-13T21:06:03.889Z,70.60
2018-08-13T21:08:32.027Z,69.80
2018-08-13T21:11:00.105Z,69.60
2018-08-13T21:13:28.218Z,69.70
2018-08-13T21:15:56.338Z,69.40
2018-08-13T21:18:26.883Z,69.60
2018-08-13T21:20:55.020Z,69.80
2018-08-13T21:23:23.116Z,70.10
2018-08-13T21:25:51.181Z,70.20
2018-08-13T21:28:19.341Z,70.00
2018-08-13T21:30:47.407Z,69.80
2018-08-13T21:33:15.510Z,70.20
2018-08-13T21:35:43.693Z,70.20
2018-08-13T21:38:11.796Z,70.00
2018-08-13T21:40:39.855Z,70.00
2018-08-13T21:43:07.924Z,70.00
2018-08-13T21:45:35.987Z,69.90
2018-08-13T21:48:04.194Z,69.90
2018-08-13T21:50:32.634Z,69.70
2018-08-13T21:53:00.711Z,69.70
2018-08-13T21:55:28.925Z,69.60
2018-08-13T21:57:56.971Z,70.00
2018-08-13T22:00:30.469Z,70.50
2018-08-13T22:03:00.221Z,70.30
2018-08-13T22:05:28.409Z,70.30
2018-08-13T22:07:56.478Z,70.30
2018-08-13T22:10:24.571Z,70.10
2018-08-13T22:12:52.661Z,70.00
2018-08-13T22:15:24.609Z,69.80
2018-08-13T22:17:53.236Z,70.10
2018-08-13T22:20:21.290Z,69.90
2018-08-13T22:22:49.743Z,70.90
2018-08-13T22:25:19.837Z,70.20
2018-08-13T22:27:47.936Z,70.20
2018-08-13T22:30:16.013Z,70.20
2018-08-13T22:32:44.102Z,70.10
2018-08-13T22:35:12.131Z,70.60
2018-08-13T22:37:41.213Z,71.10
2018-08-13T22:40:14.683Z,71.70
2018-08-13T22:42:43.548Z,72.20
2018-08-13T22:45:13.344Z,72.30
2018-08-13T22:47:42.020Z,72.90
2018-08-13T22:50:10.961Z,72.80
2018-08-13T22:52:38.992Z,73.30
2018-08-13T22:55:09.072Z,73.60
2018-08-13T22:57:37.206Z,72.80
2018-08-13T23:00:07.540Z,72.50
2018-08-13T23:02:35.593Z,72.60
2018-08-13T23:05:04.401Z,72.50
2018-08-13T23:07:32.485Z,72.30
2018-08-13T23:10:00.569Z,72.30
2018-08-13T23:12:28.698Z,72.50
2018-08-13T23:14:56.787Z,73.10
2018-08-13T23:17:24.841Z,73.80
2018-08-13T23:19:52.920Z,74.20
2018-08-13T23:22:31.752Z,74.40
2018-08-13T23:24:59.775Z,74.60
2018-08-13T23:27:27.784Z,75.00
2018-08-13T23:29:56.199Z,75.10
2018-08-13T23:32:24.265Z,75.00
2018-08-13T23:34:52.321Z,75.00
2018-08-13T23:37:20.437Z,74.70
2018-08-13T23:39:48.500Z,74.60
2018-08-13T23:42:16.564Z,74.80
2018-08-13T23:44:44.629Z,75.00
2018-08-13T23:47:13.351Z,75.10
2018-08-13T23:49:41.455Z,75.30
2018-08-13T23:52:09.558Z,76.50
2018-08-13T23:54:37.688Z,75.80
2018-08-13T23:57:05.814Z,75.70
2018-08-13T23:59:33.876Z,75.90
